Time;durP1;ratioP1;P1;durP2;ratioP2;P2;SDS_P1;SDS_P2;PMS_P1;PMS_P2;Temp;Humidity;BMP_temperature;BMP_pressure;BME280_temperature;BME280_humidity;BME280_pressure;Samples;Min_cycle;Max_cycle;Signal;HPM_P1;HPM_P2
2023/03/25 00:04:03;;;;;;;3.15;0.82;;;;;;;10.74;66.29;96897.31;10187993;29;20050;-75
2023/03/25 00:09:24;;;;;;;3.50;1.00;;;;;;;10.73;66.22;96896.59;10174977;29;20044;-76
2023/03/25 00:14:53;;;;;;;5.43;1.20;;;;;;;10.72;66.47;96897.94;10174556;29;20054;-75
2023/03/25 00:20:14;;;;;;;3.58;1.30;;;;;;;10.69;66.53;96890.78;10177070;29;20043;-75
2023/03/25 00:25:36;;;;;;;4.30;1.00;;;;;;;10.69;66.69;96890.06;10201251;29;20069;-75
2023/03/25 00:31:00;;;;;;;2.95;1.10;;;;;;;10.64;66.22;96889.13;10174330;29;20064;-75
2023/03/25 00:36:21;;;;;;;2.45;1.00;;;;;;;10.55;67.07;96882.41;10161125;29;20075;-75
2023/03/25 00:41:42;;;;;;;4.43;1.20;;;;;;;10.50;67.10;96899.53;10173866;29;20063;-75
2023/03/25 00:47:03;;;;;;;4.38;1.02;;;;;;;10.41;67.51;96894.84;10161495;29;20040;-75
2023/03/25 00:52:24;;;;;;;3.42;1.10;;;;;;;10.35;67.74;96889.66;10186438;29;20052;-75
2023/03/25 00:57:45;;;;;;;2.20;0.85;;;;;;;10.30;67.83;96887.97;10174256;29;20051;-75
2023/03/25 01:03:08;;;;;;;2.10;0.80;;;;;;;10.24;68.01;96877.25;10160854;29;20124;-75
2023/03/25 01:08:30;;;;;;;2.75;0.63;;;;;;;10.17;68.17;96888.63;10174068;29;20372;-75
2023/03/25 01:13:56;;;;;;;3.58;0.90;;;;;;;10.12;68.60;96875.78;10186666;29;20067;-75
2023/03/25 01:19:17;;;;;;;5.53;0.98;;;;;;;10.03;69.13;96877.41;10186590;29;20071;-75
2023/03/25 01:24:39;;;;;;;4.40;1.00;;;;;;;10.02;69.03;96881.53;10177403;29;20156;-75
2023/03/25 01:30:00;;;;;;;3.38;0.93;;;;;;;10.00;69.34;96884.94;10180702;29;20048;-75
2023/03/25 01:35:21;;;;;;;3.45;1.00;;;;;;;9.93;69.73;96883.16;10193724;29;20422;-75
2023/03/25 01:40:44;;;;;;;2.72;1.20;;;;;;;9.88;69.85;96886.34;10193715;29;20063;-75
2023/03/25 01:46:12;;;;;;;3.67;1.05;;;;;;;9.78;69.99;96872.56;10180314;29;20040;-75
2023/03/25 01:51:35;;;;;;;2.83;0.77;;;;;;;9.75;70.37;96862.63;10193883;29;20054;-77
2023/03/25 01:56:56;;;;;;;4.43;0.90;;;;;;;9.68;71.01;96869.19;10179550;29;20067;-75
2023/03/25 02:02:17;;;;;;;2.55;0.90;;;;;;;9.65;70.95;96875.97;10166840;29;20443;-75
2023/03/25 02:07:41;;;;;;;2.03;0.73;;;;;;;9.60;71.00;96874.28;10166814;29;20048;-75
2023/03/25 02:13:02;;;;;;;;;;;;;;;9.56;72.32;96874.06;10180311;29;20490;-75
2023/03/25 02:18:44;;;;;;;2.35;1.00;;;;;;;9.49;71.60;96869.50;10192375;29;19953;-75
2023/03/25 02:24:13;;;;;;;2.88;1.17;;;;;;;9.51;71.96;96866.81;10204722;29;20051;-75
2023/03/25 02:29:52;;;;;;;5.18;0.90;;;;;;;9.48;72.04;96868.03;10191524;29;20054;-75
2023/03/25 02:35:42;;;;;;;2.25;0.80;;;;;;;9.48;72.76;96868.03;10191585;29;20048;-75
2023/03/25 02:41:20;;;;;;;2.85;1.05;;;;;;;9.61;72.83;96873.69;10178695;29;20111;-75
2023/03/25 02:46:45;;;;;;;4.28;1.23;;;;;;;9.83;73.02;96868.63;10191993;29;20402;-76
2023/03/25 02:52:12;;;;;;;2.13;1.25;;;;;;;9.91;73.20;96841.22;10179162;29;20039;-75
2023/03/25 02:57:33;;;;;;;3.90;1.02;;;;;;;10.01;73.15;96843.84;10179548;29;20659;-75
2023/03/25 03:02:59;;;;;;;3.38;1.50;;;;;;;10.03;73.51;96830.00;10182451;29;20491;-75
2023/03/25 03:08:43;;;;;;;3.10;1.10;;;;;;;9.99;73.95;96836.09;10179371;29;20075;-75
2023/03/25 03:14:33;;;;;;;1.73;1.00;;;;;;;9.96;73.61;96826.19;10191931;29;20078;-76
2023/03/25 03:19:57;;;;;;;2.70;1.00;;;;;;;9.86;73.43;96836.06;10178971;29;20577;-75
2023/03/25 03:25:25;;;;;;;1.85;0.70;;;;;;;9.69;73.01;96842.78;10176272;29;20118;-75
2023/03/25 03:30:54;;;;;;;1.77;0.60;;;;;;;9.53;72.56;96833.50;10175874;29;20438;-75
2023/03/25 03:36:16;;;;;;;2.90;0.70;;;;;;;9.38;72.63;96832.69;10189423;29;20580;-74
2023/03/25 03:41:37;;;;;;;1.17;0.40;;;;;;;9.29;72.62;96847.50;10175709;29;20050;-76
2023/03/25 03:47:16;;;;;;;0.88;0.30;;;;;;;9.19;72.35;96838.53;10174946;29;20071;-75
2023/03/25 03:52:49;;;;;;;1.58;0.30;;;;;;;9.09;72.34;96841.47;10161786;29;20087;-75
2023/03/25 03:58:22;;;;;;;0.63;0.20;;;;;;;9.03;72.71;96843.16;10175899;29;20063;-75
2023/03/25 04:03:49;;;;;;;0.60;0.30;;;;;;;8.97;72.56;96848.34;10175880;29;20518;-75
2023/03/25 04:09:26;;;;;;;0.85;0.30;;;;;;;8.92;72.74;96849.47;10188094;29;20047;-75
2023/03/25 04:14:47;;;;;;;0.65;0.20;;;;;;;8.88;72.47;96839.56;10189913;29;20430;-75
2023/03/25 04:20:15;;;;;;;1.70;0.40;;;;;;;8.82;72.46;96841.97;10171921;29;20126;-76
2023/03/25 04:25:36;;;;;;;0.80;0.40;;;;;;;8.78;72.72;96829.84;10166007;29;20115;-75
2023/03/25 04:30:59;;;;;;;1.58;0.38;;;;;;;8.87;72.81;96820.66;10157352;29;20379;-75
2023/03/25 04:36:21;;;;;;;3.05;0.60;;;;;;;9.03;72.20;96837.59;10182035;29;20150;-75
2023/03/25 04:41:42;;;;;;;2.70;0.50;;;;;;;9.06;71.60;96839.88;10171753;29;20075;-76
2023/03/25 04:47:04;;;;;;;1.30;0.40;;;;;;;8.98;71.64;96853.34;10171537;29;20040;-76
2023/03/25 04:52:25;;;;;;;1.08;0.45;;;;;;;8.95;71.59;96848.25;10170949;29;20036;-76
2023/03/25 04:57:47;;;;;;;1.35;0.50;;;;;;;8.94;71.70;96863.50;10185289;29;20055;-76
2023/03/25 05:03:08;;;;;;;1.55;0.50;;;;;;;8.89;72.09;96877.19;10176677;29;20145;-75
2023/03/25 05:08:30;;;;;;;2.10;0.55;;;;;;;8.87;71.80;96871.47;10191952;29;20173;-76
2023/03/25 05:13:50;;;;;;;2.13;0.52;;;;;;;8.91;71.57;96876.56;10193040;29;20048;-76
2023/03/25 05:19:12;;;;;;;2.25;0.50;;;;;;;8.95;71.63;96862.88;10181038;29;20561;-75
2023/03/25 05:24:33;;;;;;;2.05;0.75;;;;;;;9.03;70.92;96876.56;10193659;29;20048;-76
2023/03/25 05:29:57;;;;;;;1.08;0.52;;;;;;;9.32;71.03;96873.38;10165751;29;20086;-75
2023/03/25 05:35:19;;;;;;;4.22;0.73;;;;;;;9.63;70.36;96878.66;10194574;29;20118;-76
2023/03/25 05:40:40;;;;;;;2.90;0.70;;;;;;;9.95;69.57;96885.34;10194064;29;20082;-76
2023/03/25 05:46:03;;;;;;;2.15;0.70;;;;;;;10.36;69.06;96879.97;10193380;29;20050;-75
2023/03/25 05:51:24;;;;;;;3.05;0.90;;;;;;;11.43;67.66;96875.75;10181169;29;20114;-75
2023/03/25 05:56:45;;;;;;;2.35;0.70;;;;;;;11.96;64.30;96893.06;10180609;29;20051;-76
2023/03/25 06:02:07;;;;;;;1.80;0.50;;;;;;;11.01;63.36;96902.22;10179908;29;20125;-75
2023/03/25 06:07:28;;;;;;;2.42;0.63;;;;;;;10.77;64.53;96890.50;10192774;29;20044;-75
2023/03/25 06:12:51;;;;;;;3.70;0.80;;;;;;;10.60;64.52;96895.22;10179263;29;20059;-76
2023/03/25 06:18:13;;;;;;;2.72;0.45;;;;;;;10.63;63.96;96900.91;10180615;29;20059;-75
2023/03/25 06:23:34;;;;;;;2.17;0.60;;;;;;;11.67;65.81;96909.75;10206215;29;20071;-76
2023/03/25 06:28:55;;;;;;;3.10;0.40;;;;;;;14.77;64.67;96901.66;10179398;29;20111;-76
2023/03/25 06:34:15;;;;;;;4.43;0.50;;;;;;;16.17;57.75;96926.25;10164951;29;20071;-76
2023/03/25 06:39:36;;;;;;;2.15;0.50;;;;;;;17.31;52.04;96904.34;10190948;29;20508;-76
2023/03/25 06:45:06;;;;;;;4.25;0.40;;;;;;;22.59;40.77;96911.59;10168012;29;20067;-74
2023/03/25 06:50:46;;;;;;;1.60;0.35;;;;;;;26.00;34.23;96918.28;10195724;29;20499;-74
2023/03/25 06:56:07;;;;;;;2.40;0.47;;;;;;;30.53;27.68;96924.41;10219902;28;20410;-74
2023/03/25 07:01:28;;;;;;;3.63;0.50;;;;;;;34.51;22.37;96918.84;10204443;29;20066;-76
2023/03/25 07:06:48;;;;;;;3.03;0.50;;;;;;;34.74;16.80;96930.91;10163895;29;20454;-76
2023/03/25 07:12:09;;;;;;;;;;;;;;;28.64;19.01;96931.81;10203631;28;20086;-77
2023/03/25 07:17:30;;;;;;;2.50;0.40;;;;;;;22.80;23.60;96940.91;10229177;29;19953;-77
2023/03/25 07:22:53;;;;;;;1.75;0.30;;;;;;;19.10;27.97;96934.19;10228020;28;20039;-76
2023/03/25 07:28:14;;;;;;;2.90;0.40;;;;;;;21.96;30.31;96928.81;10200162;29;20082;-74
2023/03/25 07:33:39;;;;;;;1.85;0.28;;;;;;;29.72;22.92;96924.06;10195005;29;20046;-77
2023/03/25 07:39:00;;;;;;;2.67;0.20;;;;;;;27.23;21.34;96930.16;10215308;29;20093;-76
2023/03/25 07:44:21;;;;;;;1.10;0.30;;;;;;;22.52;23.70;96947.09;10214725;29;20048;-74
2023/03/25 07:49:43;;;;;;;3.40;0.20;;;;;;;18.25;28.59;96958.38;10179616;29;20521;-74
2023/03/25 07:55:04;;;;;;;1.10;0.20;;;;;;;15.87;34.84;96954.13;10162134;29;20426;-74
2023/03/25 08:00:26;;;;;;;1.33;0.20;;;;;;;16.34;34.91;96969.03;10174846;29;20095;-75
2023/03/25 08:05:46;;;;;;;1.67;0.20;;;;;;;14.84;38.74;96965.81;10174668;29;20099;-75
2023/03/25 08:11:08;;;;;;;2.00;0.30;;;;;;;14.09;40.49;96953.66;10188757;29;20055;-75
2023/03/25 08:16:29;;;;;;;1.45;0.30;;;;;;;16.15;44.83;96954.34;10200997;29;20506;-75
2023/03/25 08:21:58;;;;;;;2.10;0.38;;;;;;;19.84;35.49;96949.84;10172965;29;20506;-75
2023/03/25 08:27:20;;;;;;;2.30;0.30;;;;;;;23.16;30.55;96945.41;10178024;29;20040;-75
2023/03/25 08:32:44;;;;;;;0.95;0.20;;;;;;;30.52;21.25;96938.09;10187089;29;20079;-76
2023/03/25 08:38:05;;;;;;;2.65;0.30;;;;;;;31.41;19.27;96943.75;10174785;29;20074;-76
2023/03/25 08:43:26;;;;;;;2.38;0.30;;;;;;;26.66;20.83;96962.16;10186654;29;20119;-76
2023/03/25 08:48:48;;;;;;;3.73;0.20;;;;;;;21.83;25.23;96989.75;10173658;29;20039;-76
2023/03/25 08:54:10;;;;;;;2.15;0.30;;;;;;;17.64;32.89;96992.72;10173922;29;20071;-76
2023/03/25 08:59:30;;;;;;;1.83;0.17;;;;;;;15.41;37.59;96972.84;10204642;29;20055;-75
2023/03/25 09:04:52;;;;;;;2.15;0.28;;;;;;;15.67;39.00;96973.81;10162392;29;20050;-75
2023/03/25 09:10:13;;;;;;;1.20;0.20;;;;;;;20.47;38.12;96957.34;10175309;29;20406;-76
2023/03/25 09:15:34;;;;;;;1.70;0.20;;;;;;;26.06;26.53;96955.44;10185986;29;20082;-76
2023/03/25 09:20:58;;;;;;;1.92;0.30;;;;;;;26.61;26.18;96961.47;10181525;29;20047;-76
2023/03/25 09:26:19;;;;;;;2.17;0.30;;;;;;;31.78;19.59;96963.66;10177405;29;20040;-78
2023/03/25 09:31:40;;;;;;;1.50;0.30;;;;;;;29.53;21.50;96963.97;10183862;29;20491;-79
2023/03/25 09:37:02;;;;;;;1.20;0.20;;;;;;;32.14;19.69;96967.63;10172765;29;20080;-79
2023/03/25 09:42:29;;;;;;;1.20;0.20;;;;;;;33.27;16.77;96985.66;10184750;29;20073;-79
2023/03/25 09:47:52;;;;;;;0.63;0.13;;;;;;;27.35;18.66;96990.16;10156368;29;20045;-76
2023/03/25 09:53:22;;;;;;;1.48;0.10;;;;;;;23.60;23.08;96967.72;10231522;29;20470;-76
2023/03/25 09:58:47;;;;;;;0.73;0.10;;;;;;;21.35;24.74;96967.88;10191657;29;20498;-76
2023/03/25 10:04:45;;;;;;;0.80;0.10;;;;;;;21.94;26.00;96979.94;10179556;29;20055;-76
2023/03/25 10:10:31;;;;;;;0.98;0.10;;;;;;;22.24;25.34;96970.31;10191695;29;20074;-76
2023/03/25 10:15:54;;;;;;;0.88;0.20;;;;;;;20.56;25.95;96967.44;10192041;29;20055;-76
2023/03/25 10:21:24;;;;;;;1.25;0.10;;;;;;;18.24;28.85;96962.59;10195657;29;20063;-76
2023/03/25 10:26:47;;;;;;;1.15;0.30;;;;;;;16.90;31.26;96963.78;10232967;28;20472;-75
2023/03/25 10:32:28;;;;;;;2.92;1.00;;;;;;;18.74;32.60;96956.75;10221979;29;20071;-76
2023/03/25 10:37:50;;;;;;;1.33;0.20;;;;;;;22.45;27.69;96952.00;10186019;29;20082;-76
2023/03/25 10:43:20;;;;;;;0.80;0.20;;;;;;;20.51;27.20;96954.56;10185172;29;20051;-76
2023/03/25 10:48:41;;;;;;;1.73;0.30;;;;;;;19.03;28.96;96958.09;10180271;29;20074;-78
2023/03/25 10:54:01;;;;;;;1.25;0.17;;;;;;;17.53;31.42;96943.03;10203528;29;20087;-78
2023/03/25 10:59:37;;;;;;;1.38;0.20;;;;;;;21.50;31.25;96946.03;10190146;29;20067;-75
2023/03/25 11:05:00;;;;;;;0.77;0.10;;;;;;;20.72;26.87;96929.38;10191267;29;20118;-77
2023/03/25 11:10:30;;;;;;;1.85;0.10;;;;;;;18.59;30.23;96921.03;10202371;29;20067;-79
2023/03/25 11:15:52;;;;;;;1.08;0.22;;;;;;;18.54;30.42;96908.22;10189810;29;20074;-76
2023/03/25 11:21:14;;;;;;;1.13;0.10;;;;;;;19.20;29.83;96911.06;10178076;29;20126;-76
2023/03/25 11:26:36;;;;;;;1.73;0.30;;;;;;;18.64;29.37;96883.00;10188479;29;20071;-76
2023/03/25 11:32:05;;;;;;;1.15;0.10;;;;;;;18.44;30.16;96877.59;10176310;29;20447;-78
2023/03/25 11:37:27;;;;;;;1.27;0.20;;;;;;;18.99;29.92;96873.16;10175468;29;20170;-76
2023/03/25 11:42:53;;;;;;;3.58;0.30;;;;;;;19.31;29.94;96890.09;10200798;29;20058;-77
2023/03/25 11:48:19;;;;;;;0.88;0.10;;;;;;;19.33;29.41;96878.81;10178633;29;20406;-75
2023/03/25 11:53:46;;;;;;;1.65;0.20;;;;;;;19.44;29.15;96859.91;10181321;29;20482;-76
2023/03/25 11:59:26;;;;;;;1.17;0.20;;;;;;;18.95;29.96;96880.84;10172939;29;20054;-75
2023/03/25 12:04:59;;;;;;;0.98;0.40;;;;;;;18.47;29.92;96876.25;10174313;29;20070;-76
2023/03/25 12:10:59;;;;;;;1.00;0.20;;;;;;;17.92;30.92;96872.13;10171273;29;20055;-76
2023/03/25 12:16:23;;;;;;;0.82;0.20;;;;;;;17.66;30.98;96868.59;10171473;29;20128;-75
2023/03/25 12:22:15;;;;;;;1.98;0.22;;;;;;;17.30;32.21;96871.91;10190614;29;20054;-76
2023/03/25 12:28:04;;;;;;;1.65;0.22;;;;;;;18.05;31.69;96844.16;10187559;29;20116;-76
2023/03/25 12:33:46;;;;;;;1.27;0.22;;;;;;;17.67;31.29;96841.84;10175928;29;20059;-76
2023/03/25 12:39:12;;;;;;;3.03;0.17;;;;;;;17.61;31.87;96836.03;10172099;29;20095;-77
2023/03/25 12:45:17;;;;;;;1.73;0.30;;;;;;;17.49;31.93;96830.06;10183121;29;20480;-78
2023/03/25 12:51:10;;;;;;;0.90;0.17;;;;;;;17.48;31.66;96837.09;10171797;29;20051;-76
2023/03/25 12:56:49;;;;;;;1.60;0.20;;;;;;;17.40;31.47;96821.41;10180530;29;20060;-76
2023/03/25 13:02:09;;;;;;;2.95;0.40;;;;;;;16.68;31.83;96826.44;10177524;29;20043;-76
2023/03/25 13:07:35;;;;;;;3.72;0.35;;;;;;;17.30;33.51;96823.22;10200318;29;20055;-77
2023/03/25 13:12:57;;;;;;;2.38;0.20;;;;;;;18.32;32.51;96817.97;10173578;29;20068;-76
2023/03/25 13:18:21;;;;;;;1.50;0.25;;;;;;;18.33;31.83;96810.22;10165585;29;20072;-77
2023/03/25 13:23:44;;;;;;;1.25;0.20;;;;;;;18.07;32.12;96801.88;10179075;29;20043;-76
2023/03/25 13:29:06;;;;;;;4.55;0.25;;;;;;;18.02;32.09;96796.13;10172090;29;20043;-76
2023/03/25 13:34:30;;;;;;;1.63;0.28;;;;;;;17.76;32.34;96798.34;10159222;29;20055;-76
2023/03/25 13:40:13;;;;;;;3.72;0.35;;;;;;;17.49;32.76;96787.75;10185946;29;20107;-77
2023/03/25 13:46:01;;;;;;;2.28;0.47;;;;;;;17.38;32.48;96787.50;10197338;29;20119;-77
2023/03/25 13:51:22;;;;;;;4.00;0.45;;;;;;;17.07;32.39;96796.53;10167172;29;20872;-77
2023/03/25 13:57:18;;;;;;;2.45;0.50;;;;;;;16.58;32.79;96797.94;10183945;29;20526;-77
2023/03/25 14:02:44;;;;;;;3.22;0.50;;;;;;;16.40;33.25;96795.31;10176443;29;20091;-77
2023/03/25 14:08:42;;;;;;;6.55;1.17;;;;;;;16.82;33.39;96800.78;10170950;29;20051;-77
2023/03/25 14:14:14;;;;;;;3.00;0.60;;;;;;;16.98;32.39;96806.13;10174617;29;20111;-76
2023/03/25 14:19:40;;;;;;;2.33;0.40;;;;;;;17.21;32.35;96788.47;10170860;29;20059;-76
2023/03/25 14:25:01;;;;;;;3.40;0.38;;;;;;;17.04;31.90;96798.56;10182216;29;20074;-76
2023/03/25 14:30:26;;;;;;;3.08;0.55;;;;;;;16.84;32.12;96803.66;10156348;29;20071;-77
2023/03/25 14:35:47;;;;;;;3.88;0.43;;;;;;;16.41;32.55;96798.88;10153945;29;20079;-75
2023/03/25 14:41:10;;;;;;;4.47;0.40;;;;;;;15.76;33.08;96830.63;10157673;29;20071;-76
2023/03/25 14:46:34;;;;;;;1.38;0.20;;;;;;;14.87;37.53;96854.25;10163051;29;20479;-76
2023/03/25 14:52:01;;;;;;;1.73;0.30;;;;;;;13.96;39.42;96862.66;10170798;29;20103;-76
2023/03/25 14:57:23;;;;;;;3.13;0.30;;;;;;;13.46;42.20;96859.22;10174936;29;20083;-76
2023/03/25 15:02:49;;;;;;;1.23;0.20;;;;;;;13.32;42.74;96850.94;10162813;29;20044;-76
2023/03/25 15:08:13;;;;;;;1.25;0.20;;;;;;;13.43;42.11;96860.50;10138634;29;20052;-76
2023/03/25 15:13:51;;;;;;;1.30;0.20;;;;;;;13.29;42.97;96866.22;10122465;29;20501;-76
2023/03/25 15:19:14;;;;;;;1.00;0.20;;;;;;;13.28;42.64;96858.44;10122215;29;20048;-76
2023/03/25 15:24:39;;;;;;;0.80;0.20;;;;;;;13.26;42.75;96855.56;10147132;29;20044;-76
2023/03/25 15:30:34;;;;;;;2.40;0.40;;;;;;;13.27;42.79;96857.00;10160928;29;20403;-76
2023/03/25 15:36:20;;;;;;;0.60;0.20;;;;;;;13.46;43.19;96857.16;10172830;29;20064;-76
2023/03/25 15:42:11;;;;;;;1.67;0.28;;;;;;;13.89;42.96;96858.16;10172269;29;20479;-77
2023/03/25 15:47:35;;;;;;;0.80;0.30;;;;;;;13.76;42.35;96859.75;10157461;29;20051;-77
2023/03/25 15:53:01;;;;;;;1.05;0.50;;;;;;;13.62;42.55;96859.19;10185453;29;20048;-77
2023/03/25 15:58:31;;;;;;;1.48;0.60;;;;;;;13.28;43.08;96856.38;10158426;29;20080;-77
2023/03/25 16:03:58;;;;;;;1.60;0.50;;;;;;;12.89;43.28;96867.94;10158789;29;20074;-77
2023/03/25 16:09:20;;;;;;;1.20;0.40;;;;;;;12.71;43.71;96865.06;10158754;29;20475;-76
2023/03/25 16:14:41;;;;;;;3.67;0.50;;;;;;;12.78;44.10;96863.25;10158199;29;20044;-77
2023/03/25 16:20:05;;;;;;;3.10;0.60;;;;;;;12.61;43.52;96853.41;10155035;29;20043;-77
2023/03/25 16:25:39;;;;;;;2.55;0.80;;;;;;;12.33;43.84;96861.94;10167967;29;20052;-75
2023/03/25 16:31:01;;;;;;;2.85;0.95;;;;;;;12.11;44.13;96872.09;10138874;29;20063;-76
2023/03/25 16:36:22;;;;;;;2.50;0.75;;;;;;;11.97;44.44;96885.41;10150274;29;20534;-75
2023/03/25 16:41:45;;;;;;;2.50;0.60;;;;;;;11.86;44.83;96900.22;10140600;29;20044;-77
2023/03/25 16:47:05;;;;;;;1.63;0.55;;;;;;;11.92;45.10;96892.16;10152620;29;20483;-76
2023/03/25 16:52:28;;;;;;;0.93;0.30;;;;;;;11.92;44.99;96897.75;10154735;29;20048;-76
2023/03/25 16:57:51;;;;;;;1.00;0.30;;;;;;;11.79;45.55;96906.88;10180490;29;20483;-75
2023/03/25 17:03:20;;;;;;;1.10;0.30;;;;;;;11.67;45.28;96915.34;10173832;29;20051;-78
2023/03/25 17:08:41;;;;;;;1.10;0.30;;;;;;;11.54;45.55;96908.44;10159050;29;20078;-76
2023/03/25 17:14:05;;;;;;;1.17;0.32;;;;;;;11.47;45.49;96909.47;10148584;29;20447;-75
2023/03/25 17:19:26;;;;;;;2.05;0.40;;;;;;;11.45;46.11;96915.69;10168233;29;20052;-76
2023/03/25 17:24:56;;;;;;;0.98;0.22;;;;;;;11.19;46.88;96908.75;10158183;29;20047;-76
2023/03/25 17:30:19;;;;;;;0.73;0.20;;;;;;;10.92;47.03;96912.25;10157764;29;20117;-77
2023/03/25 17:36:09;;;;;;;1.58;0.40;;;;;;;10.69;47.77;96910.31;10177041;29;20511;-76
2023/03/25 17:41:37;;;;;;;1.58;0.30;;;;;;;10.49;48.12;96918.31;10182772;29;20055;-76
2023/03/25 17:46:58;;;;;;;1.73;0.20;;;;;;;10.25;48.94;96923.31;10168673;29;20044;-77
2023/03/25 17:52:19;;;;;;;1.25;0.30;;;;;;;10.10;50.13;96931.47;10180905;29;20399;-76
2023/03/25 17:57:43;;;;;;;0.90;0.40;;;;;;;9.97;51.21;96955.88;10167178;29;20060;-77
2023/03/25 18:03:14;;;;;;;;;;;;;;;9.85;51.90;96949.59;10154050;29;20040;-76
2023/03/25 18:08:35;;;;;;;0.70;0.40;;;;;;;9.80;51.80;96950.69;10157084;29;19927;-76
2023/03/25 18:13:58;;;;;;;1.25;0.50;;;;;;;9.73;52.42;96954.47;10158427;29;20090;-75
2023/03/25 18:19:21;;;;;;;2.10;0.60;;;;;;;9.73;52.78;96951.69;10143504;29;20044;-75
2023/03/25 18:25:13;;;;;;;2.25;0.60;;;;;;;9.67;53.43;96956.91;10164621;29;20053;-76
2023/03/25 18:30:42;;;;;;;2.83;0.90;;;;;;;9.69;53.91;96945.88;10169066;29;20044;-76
2023/03/25 18:36:41;;;;;;;1.45;0.65;;;;;;;9.67;53.88;96952.06;10158862;29;20052;-77
2023/03/25 18:42:02;;;;;;;3.17;0.50;;;;;;;9.58;54.11;96949.41;10161087;29;20048;-75
2023/03/25 18:47:23;;;;;;;2.55;0.70;;;;;;;9.54;54.08;96951.94;10155634;29;20480;-76
2023/03/25 18:53:13;;;;;;;2.75;0.70;;;;;;;9.54;54.52;96958.25;10165303;29;20056;-77
2023/03/25 18:59:02;;;;;;;2.83;0.73;;;;;;;9.56;54.65;96952.09;10174720;29;20594;-77
2023/03/25 19:04:52;;;;;;;2.13;0.47;;;;;;;9.53;54.60;96944.94;10157201;29;20056;-76
2023/03/25 19:10:26;;;;;;;2.13;0.77;;;;;;;9.37;54.93;96953.78;10150470;29;20044;-77
2023/03/25 19:15:47;;;;;;;2.05;0.63;;;;;;;9.26;54.67;96951.72;10148386;29;20047;-77
2023/03/25 19:21:18;;;;;;;4.05;0.90;;;;;;;9.20;56.02;96956.94;10161017;29;20041;-76
2023/03/25 19:28:07;;;;;;;2.70;0.70;;;;;;;9.19;55.64;96966.63;10097575;29;20076;-76
2023/03/25 19:34:00;;;;;;;2.15;0.77;;;;;;;9.12;55.55;96968.31;10073048;29;20544;-77
2023/03/25 19:39:21;;;;;;;4.28;0.98;;;;;;;9.05;56.38;96968.53;10062596;29;20139;-77
2023/03/25 19:45:14;;;;;;;3.20;1.20;;;;;;;9.02;56.54;96958.63;10071598;29;20135;-77
2023/03/25 19:50:35;;;;;;;2.10;0.77;;;;;;;9.15;56.47;96946.88;10073878;29;20064;-77
2023/03/25 19:56:32;;;;;;;3.83;1.42;;;;;;;9.32;56.33;96949.31;10071304;29;20057;-76
2023/03/25 20:02:23;;;;;;;2.03;0.77;;;;;;;9.40;56.31;96941.44;10105164;29;20060;-77
2023/03/25 20:07:44;;;;;;;6.38;1.50;;;;;;;9.29;56.36;96947.75;10153021;29;20077;-77
2023/03/25 20:13:37;;;;;;;2.35;1.17;;;;;;;9.14;56.51;96932.22;10159216;29;20399;-76
2023/03/25 20:19:07;;;;;;;3.42;1.05;;;;;;;8.96;57.16;96939.47;10138953;29;20052;-77
2023/03/25 20:24:56;;;;;;;3.28;0.90;;;;;;;8.88;57.72;96941.81;10149808;29;20045;-78
2023/03/25 20:30:45;;;;;;;2.55;1.20;;;;;;;9.02;57.70;96947.50;10159517;29;20056;-76
2023/03/25 20:36:06;;;;;;;3.00;0.93;;;;;;;9.11;57.47;96949.44;10151120;29;20063;-76
2023/03/25 20:41:27;;;;;;;3.65;1.20;;;;;;;9.20;57.55;96948.59;10165295;29;20064;-77
2023/03/25 20:47:16;;;;;;;4.25;1.70;;;;;;;9.23;57.71;96944.59;10158951;29;20056;-76
2023/03/25 20:52:36;;;;;;;2.72;1.10;;;;;;;9.28;57.63;96940.00;10151502;29;20044;-76
2023/03/25 20:57:58;;;;;;;3.75;1.42;;;;;;;9.09;57.50;96935.41;10151084;29;20099;-77
2023/03/25 21:03:19;;;;;;;3.30;1.40;;;;;;;9.00;57.74;96939.03;10161992;29;20558;-76
2023/03/25 21:08:39;;;;;;;3.03;1.20;;;;;;;9.01;58.28;96923.78;10148826;29;20055;-76
2023/03/25 21:14:01;;;;;;;3.92;1.40;;;;;;;8.92;58.22;96932.97;10178800;29;20090;-77
2023/03/25 21:19:21;;;;;;;3.15;1.15;;;;;;;8.87;58.35;96929.91;10157457;29;20052;-77
2023/03/25 21:24:42;;;;;;;2.60;0.80;;;;;;;8.84;59.08;96936.69;10160532;29;20075;-77
2023/03/25 21:30:03;;;;;;;4.13;0.90;;;;;;;8.86;59.66;96925.69;10167800;29;20046;-77
2023/03/25 21:35:27;;;;;;;4.57;1.02;;;;;;;8.88;59.15;96911.91;10150695;29;20067;-78
2023/03/25 21:40:59;;;;;;;3.40;1.20;;;;;;;8.89;59.47;96907.78;10168310;29;20145;-77
2023/03/25 21:46:26;;;;;;;4.43;1.02;;;;;;;8.88;59.17;96906.34;10150801;29;20064;-77
2023/03/25 21:51:55;;;;;;;3.33;1.00;;;;;;;8.95;59.32;96909.47;10158144;29;20040;-77
2023/03/25 21:57:19;;;;;;;3.40;0.70;;;;;;;9.04;58.88;96925.34;10184448;29;20051;-77
2023/03/25 22:02:44;;;;;;;3.15;0.60;;;;;;;9.10;58.80;96904.16;10189550;29;20040;-76
2023/03/25 22:08:05;;;;;;;3.10;0.70;;;;;;;9.17;58.60;96905.25;10174355;29;20074;-76
2023/03/25 22:13:30;;;;;;;3.90;0.70;;;;;;;9.15;58.41;96907.91;10178128;29;20479;-76
2023/03/25 22:18:56;;;;;;;2.20;0.73;;;;;;;9.05;58.49;96902.44;10187971;29;20074;-77
2023/03/25 22:24:16;;;;;;;4.15;1.02;;;;;;;9.00;58.61;96888.91;10173875;29;20423;-77
2023/03/25 22:29:37;;;;;;;4.55;0.88;;;;;;;8.97;58.82;96881.75;10170200;29;20486;-76
2023/03/25 22:34:58;;;;;;;3.38;1.00;;;;;;;8.87;58.53;96882.59;10171351;29;20439;-79
2023/03/25 22:40:22;;;;;;;2.63;0.65;;;;;;;8.79;58.36;96873.06;10177958;29;20067;-77
2023/03/25 22:45:43;;;;;;;4.35;0.65;;;;;;;8.71;58.48;96872.56;10158203;29;20067;-77
2023/03/25 22:51:09;;;;;;;2.08;0.52;;;;;;;8.64;58.39;96877.03;10161807;29;20040;-77
2023/03/25 22:56:33;;;;;;;2.13;0.40;;;;;;;8.55;58.62;96869.53;10183920;29;20079;-77
2023/03/25 23:08:53;;;;;;;2.50;0.70;;;;;;;8.42;58.65;96861.78;10271833;23;20052;-78
2023/03/25 23:14:15;;;;;;;3.08;0.52;;;;;;;8.39;58.45;96862.97;10142782;29;20427;-78
2023/03/25 23:19:38;;;;;;;2.80;0.40;;;;;;;8.37;58.43;96871.19;10103898;29;20060;-78
2023/03/25 23:25:27;;;;;;;2.97;0.30;;;;;;;8.40;58.52;96870.72;10124211;29;20057;-77
2023/03/25 23:31:27;;;;;;;4.32;0.30;;;;;;;8.37;58.62;96851.72;10110189;29;20131;-77
2023/03/25 23:36:48;;;;;;;1.73;0.40;;;;;;;8.33;58.56;96857.72;10114075;29;20075;-78
2023/03/25 23:43:10;;;;;;;2.55;0.32;;;;;;;8.30;58.76;96854.09;10111532;29;20044;-77
2023/03/25 23:49:01;;;;;;;3.72;0.35;;;;;;;8.35;58.45;96860.66;10128154;29;20056;-78
2023/03/25 23:54:26;;;;;;;3.28;0.47;;;;;;;8.39;58.04;96857.41;10100232;29;20079;-77
